Time;durP1;ratioP1;P1;durP2;ratioP2;P2;SDS_P1;SDS_P2;PMS_P1;PMS_P2;Temp;Humidity;BMP_temperature;BMP_pressure;BME280_temperature;BME280_humidity;BME280_pressure;Samples;Min_cycle;Max_cycle;Signal;HPM_P1;HPM_P2
2023/09/05 00:02:02;;;;;;;6.72;6.03;;;;;;;16.18;100.00;101800.38;4989285;28;20061;-66
2023/09/05 00:04:28;;;;;;;6.97;5.65;;;;;;;16.16;100.00;101789.91;4989684;28;20096;-65
2023/09/05 00:06:54;;;;;;;6.43;5.43;;;;;;;16.15;100.00;101800.31;4989664;28;20023;-65
2023/09/05 00:09:19;;;;;;;6.07;5.47;;;;;;;16.11;100.00;101795.84;4989394;28;20118;-66
2023/09/05 00:11:45;;;;;;;5.82;5.25;;;;;;;16.06;100.00;101794.00;4989528;28;20049;-66
2023/09/05 00:14:11;;;;;;;6.40;5.80;;;;;;;16.00;100.00;101793.88;4989838;28;20034;-66
2023/09/05 00:16:38;;;;;;;5.78;5.18;;;;;;;15.96;100.00;101797.22;4989755;28;20145;-65
2023/09/05 00:19:04;;;;;;;5.72;5.22;;;;;;;15.91;100.00;101788.38;4989335;28;20027;-64
2023/09/05 00:21:29;;;;;;;7.50;5.80;;;;;;;15.85;100.00;101786.50;4989184;28;20022;-66
2023/09/05 00:24:32;;;;;;;6.68;6.07;;;;;;;15.81;100.00;101793.38;4989258;28;20170;-66
2023/09/05 00:27:02;;;;;;;6.60;5.70;;;;;;;15.78;100.00;101793.28;4989641;28;20641;-66
2023/09/05 00:29:30;;;;;;;7.40;6.35;;;;;;;15.76;100.00;101789.75;4989288;28;20093;-66
2023/09/05 00:31:59;;;;;;;6.75;5.93;;;;;;;15.71;100.00;101786.13;4989582;28;20022;-66
2023/09/05 00:34:29;;;;;;;6.70;5.90;;;;;;;15.69;100.00;101790.44;4989481;28;20034;-65
2023/09/05 00:36:54;;;;;;;6.22;5.68;;;;;;;15.69;100.00;101795.66;4988459;28;20037;-66
2023/09/05 00:39:20;;;;;;;6.57;5.70;;;;;;;15.67;100.00;101795.63;4988916;28;20030;-66
2023/09/05 00:41:46;;;;;;;6.03;5.43;;;;;;;15.65;100.00;101794.69;4988387;28;20057;-66
2023/09/05 00:44:14;;;;;;;7.00;6.40;;;;;;;15.60;100.00;101796.31;4989031;28;20462;-66
2023/09/05 00:46:45;;;;;;;5.68;5.00;;;;;;;15.55;100.00;101790.97;4988665;28;20030;-65
2023/09/05 00:49:12;;;;;;;6.75;5.53;;;;;;;15.53;100.00;101797.00;4989332;28;20037;-66
2023/09/05 00:51:39;;;;;;;7.00;5.75;;;;;;;15.52;100.00;101803.06;4989007;28;20226;-65
2023/09/05 00:54:06;;;;;;;5.72;5.22;;;;;;;15.52;100.00;101798.75;4989034;28;20026;-65
2023/09/05 00:56:32;;;;;;;5.93;5.30;;;;;;;15.49;100.00;101802.13;4988292;28;20034;-65
2023/09/05 00:58:59;;;;;;;6.63;6.03;;;;;;;15.47;100.00;101805.56;4988713;28;20121;-65
2023/09/05 01:01:24;;;;;;;6.13;5.35;;;;;;;15.44;100.00;101801.13;4988574;28;20469;-66
2023/09/05 01:03:51;;;;;;;6.45;5.20;;;;;;;15.42;100.00;101800.19;4988602;28;20027;-66
2023/09/05 01:06:37;;;;;;;7.10;5.47;;;;;;;15.42;100.00;101796.69;4987879;28;20026;-65
2023/09/05 01:09:17;;;;;;;6.47;5.53;;;;;;;15.42;100.00;101794.09;4988480;28;20141;-66
2023/09/05 01:11:43;;;;;;;7.43;5.68;;;;;;;15.42;100.00;101794.97;4988804;28;20506;-65
2023/09/05 01:14:08;;;;;;;6.90;6.20;;;;;;;15.44;100.00;101798.53;4988943;28;20030;-65
2023/09/05 01:16:33;;;;;;;6.13;5.38;;;;;;;15.45;100.00;101795.06;4988352;28;20034;-66
2023/09/05 01:19:01;;;;;;;6.55;5.90;;;;;;;15.44;100.00;101788.06;4988185;28;20105;-65
2023/09/05 01:21:31;;;;;;;6.45;5.90;;;;;;;15.41;100.00;101787.09;4988251;28;20423;-66
2023/09/05 01:24:15;;;;;;;6.53;5.93;;;;;;;15.42;100.00;101784.53;4988110;28;20434;-64
2023/09/05 01:26:42;;;;;;;7.85;6.95;;;;;;;15.43;100.00;101785.44;4987930;28;20034;-65
2023/09/05 01:29:11;;;;;;;7.70;7.00;;;;;;;15.45;100.00;101786.34;4987806;28;20034;-66
2023/09/05 01:31:37;;;;;;;7.13;6.43;;;;;;;15.46;100.00;101790.72;4987718;28;20445;-65
2023/09/05 01:34:02;;;;;;;6.70;6.10;;;;;;;15.48;100.00;101789.03;4987072;28;20042;-65
2023/09/05 01:36:27;;;;;;;10.95;6.10;;;;;;;15.48;100.00;101800.38;4987844;28;20173;-65
2023/09/05 01:38:53;;;;;;;8.57;6.50;;;;;;;15.45;100.00;101796.81;4987966;28;20057;-65
2023/09/05 01:41:18;;;;;;;6.90;6.30;;;;;;;15.44;100.00;101797.63;4987489;28;20050;-66
2023/09/05 01:43:43;;;;;;;8.68;6.60;;;;;;;15.42;100.00;101794.09;4987325;28;20097;-66
2023/09/05 01:46:10;;;;;;;7.15;6.55;;;;;;;15.42;100.00;101794.09;4987488;28;20022;-66
2023/09/05 01:48:35;;;;;;;7.45;6.75;;;;;;;15.41;100.00;101797.56;4987394;28;20030;-65
2023/09/05 01:51:00;;;;;;;7.07;6.07;;;;;;;15.41;100.00;101800.16;4987168;28;20080;-66
2023/09/05 01:53:26;;;;;;;7.00;6.40;;;;;;;15.40;100.00;101798.41;4985501;28;20030;-66
2023/09/05 01:55:51;;;;;;;6.90;6.30;;;;;;;15.38;100.00;101792.25;4987408;28;20022;-66
2023/09/05 01:58:17;;;;;;;6.78;6.05;;;;;;;15.38;100.00;101787.88;4987219;28;20038;-65
2023/09/05 02:00:42;;;;;;;7.18;6.03;;;;;;;15.35;100.00;101791.31;4987896;28;20386;-65
2023/09/05 02:03:08;;;;;;;9.48;5.88;;;;;;;15.36;100.00;101794.84;4987222;28;20129;-65
2023/09/05 02:05:33;;;;;;;7.00;6.30;;;;;;;15.37;100.00;101788.75;4987635;28;20080;-66
2023/09/05 02:07:58;;;;;;;6.80;5.85;;;;;;;15.38;100.00;101797.47;4987138;28;20114;-64
2023/09/05 02:10:23;;;;;;;7.50;6.80;;;;;;;15.38;100.00;101794.88;4987338;28;20363;-66
2023/09/05 02:12:50;;;;;;;7.50;6.15;;;;;;;15.36;100.00;101795.69;4987207;28;20042;-65
2023/09/05 02:15:15;;;;;;;6.00;5.40;;;;;;;15.37;100.00;101796.59;4986866;28;20034;-65
2023/09/05 02:17:40;;;;;;;6.00;5.40;;;;;;;15.35;100.00;101793.03;4986777;28;20138;-66
2023/09/05 02:20:06;;;;;;;7.18;6.47;;;;;;;15.36;100.00;101794.84;4987021;28;20042;-66
2023/09/05 02:22:31;;;;;;;6.10;5.25;;;;;;;15.35;100.00;101793.03;4986842;28;20022;-66
2023/09/05 02:24:59;;;;;;;6.45;5.85;;;;;;;15.32;100.00;101793.84;4986834;28;20030;-64
2023/09/05 02:27:25;;;;;;;6.43;5.82;;;;;;;15.32;100.00;101787.75;4951470;28;1039834;-65
2023/09/05 02:29:56;;;;;;;9.80;5.97;;;;;;;15.31;100.00;101791.22;4987491;28;20390;-65
2023/09/05 02:32:22;;;;;;;6.40;5.80;;;;;;;15.31;100.00;101792.06;4987979;28;20485;-66
2023/09/05 02:34:52;;;;;;;7.28;5.43;;;;;;;15.31;100.00;101783.38;4987665;28;20494;-65
2023/09/05 02:37:17;;;;;;;6.10;5.10;;;;;;;15.33;100.00;101790.38;4987734;28;20029;-66
2023/09/05 02:39:43;;;;;;;6.32;5.50;;;;;;;15.36;100.00;101789.59;4988137;28;20022;-66
2023/09/05 02:42:08;;;;;;;6.10;5.60;;;;;;;15.38;100.00;101792.25;4987736;28;20034;-63
2023/09/05 02:44:33;;;;;;;6.30;5.50;;;;;;;15.40;100.00;101793.19;4987547;28;20031;-66
2023/09/05 02:46:58;;;;;;;6.22;5.63;;;;;;;15.42;100.00;101788.88;4987261;28;20034;-65
2023/09/05 02:49:24;;;;;;;6.25;5.65;;;;;;;15.42;100.00;101788.88;4987765;28;20454;-66
2023/09/05 02:51:49;;;;;;;9.32;5.93;;;;;;;15.42;100.00;101775.81;4987465;28;20061;-65
2023/09/05 02:54:14;;;;;;;5.93;5.20;;;;;;;15.42;100.00;101779.31;4987691;28;20057;-66
2023/09/05 02:56:40;;;;;;;6.00;5.40;;;;;;;15.41;100.00;101774.94;4987335;28;20382;-66
2023/09/05 02:59:05;;;;;;;6.25;5.60;;;;;;;15.39;100.00;101770.50;4987321;28;20026;-66
2023/09/05 03:01:31;;;;;;;5.78;5.28;;;;;;;15.34;100.00;101766.03;4987415;28;20025;-66
2023/09/05 03:03:56;;;;;;;5.70;5.20;;;;;;;15.31;100.00;101765.97;4987848;28;20062;-65
2023/09/05 03:06:21;;;;;;;6.50;5.82;;;;;;;15.28;100.00;101771.09;4991042;28;20455;-66
2023/09/05 03:08:46;;;;;;;6.45;5.50;;;;;;;15.25;100.00;101769.28;4991325;28;20033;-66
2023/09/05 03:11:18;;;;;;;6.55;5.55;;;;;;;15.26;100.00;101775.41;4990605;28;20088;-65
2023/09/05 03:13:44;;;;;;;6.63;6.00;;;;;;;15.23;100.00;101770.09;4991270;28;20026;-66
2023/09/05 03:16:11;;;;;;;5.63;5.10;;;;;;;15.19;100.00;101770.84;4990727;28;20041;-65
2023/09/05 03:18:36;;;;;;;5.75;5.15;;;;;;;15.12;100.00;101775.91;4990971;28;20030;-65
2023/09/05 03:21:01;;;;;;;6.60;5.65;;;;;;;15.08;100.00;101775.75;4990333;28;20502;-66
2023/09/05 03:23:27;;;;;;;6.80;5.65;;;;;;;15.04;100.00;101771.31;4990708;28;20026;-66
2023/09/05 03:25:52;;;;;;;6.13;5.05;;;;;;;14.98;100.00;101765.09;4989810;28;20046;-66
2023/09/05 03:28:18;;;;;;;5.80;5.13;;;;;;;14.95;100.00;101762.38;4990099;28;20100;-66
2023/09/05 03:30:43;;;;;;;5.90;5.30;;;;;;;14.91;100.00;101760.53;4990366;28;20030;-66
2023/09/05 03:33:09;;;;;;;6.20;5.15;;;;;;;14.89;100.00;101768.28;4990864;28;20120;-65
2023/09/05 03:35:35;;;;;;;5.63;5.13;;;;;;;14.86;100.00;101762.09;4990391;28;20501;-66
2023/09/05 03:38:02;;;;;;;5.50;4.97;;;;;;;14.84;100.00;101754.22;4990276;28;20104;-66
2023/09/05 03:40:28;;;;;;;5.78;5.28;;;;;;;14.85;100.00;101758.63;4990986;28;20386;-66
2023/09/05 03:42:53;;;;;;;6.15;5.22;;;;;;;14.83;100.00;101762.03;4990145;28;20034;-65
2023/09/05 03:45:19;;;;;;;6.32;5.00;;;;;;;14.83;100.00;101773.34;4989789;28;20063;-64
2023/09/05 03:47:44;;;;;;;5.40;4.93;;;;;;;14.81;100.00;101767.19;4990356;28;20455;-65
2023/09/05 03:50:10;;;;;;;5.75;4.97;;;;;;;14.80;100.00;101769.72;4989360;28;20038;-65
2023/09/05 03:52:35;;;;;;;5.53;5.00;;;;;;;14.77;100.00;101768.78;4989995;28;20080;-66
2023/09/05 03:55:00;;;;;;;6.07;5.35;;;;;;;14.79;100.00;101761.00;4989916;28;20106;-65
2023/09/05 03:57:26;;;;;;;5.30;4.43;;;;;;;14.77;100.00;101757.47;4990086;28;20561;-66
2023/09/05 03:59:51;;;;;;;5.82;4.57;;;;;;;14.78;100.00;101764.47;4989060;28;20010;-65
2023/09/05 04:02:16;;;;;;;5.93;5.43;;;;;;;14.76;100.00;101755.72;4990031;28;20461;-65
2023/09/05 04:04:42;;;;;;;6.05;5.43;;;;;;;14.79;100.00;101763.63;4989661;28;20469;-65
2023/09/05 04:07:08;;;;;;;5.57;5.07;;;;;;;14.75;100.00;101759.19;4989847;28;20065;-66
2023/09/05 04:09:33;;;;;;;5.70;5.18;;;;;;;14.71;100.00;101760.81;4989354;28;20077;-65
2023/09/05 04:11:58;;;;;;;7.05;6.30;;;;;;;14.69;100.00;101758.97;4989619;28;20064;-65
2023/09/05 04:14:23;;;;;;;5.65;5.10;;;;;;;14.68;100.00;101757.22;4989932;28;20433;-65
2023/09/05 04:16:49;;;;;;;5.88;5.28;;;;;;;14.64;100.00;101756.25;4988764;28;20054;-64
2023/09/05 04:19:14;;;;;;;10.00;5.40;;;;;;;14.61;100.00;101751.81;4989435;28;20030;-66
2023/09/05 04:21:39;;;;;;;6.35;5.20;;;;;;;14.59;100.00;101747.41;4989084;28;20030;-65
2023/09/05 04:24:05;;;;;;;6.15;4.93;;;;;;;14.51;100.00;101747.16;4989907;28;20478;-66
2023/09/05 04:26:33;;;;;;;6.18;5.30;;;;;;;14.47;100.00;101742.69;4989514;28;20018;-66
2023/09/05 04:28:59;;;;;;;7.22;5.50;;;;;;;14.42;100.00;101732.13;4989208;28;20034;-65
2023/09/05 04:31:24;;;;;;;7.22;5.78;;;;;;;14.37;100.00;101737.19;4988955;28;20033;-66
2023/09/05 04:33:50;;;;;;;5.97;5.32;;;;;;;14.34;100.00;101741.41;4988661;28;20423;-66
2023/09/05 04:36:15;;;;;;;5.63;5.07;;;;;;;14.29;100.00;101743.88;4989455;28;20027;-66
2023/09/05 04:38:43;;;;;;;9.00;5.50;;;;;;;14.27;100.00;101740.34;4988904;28;20081;-65
2023/09/05 04:41:09;;;;;;;5.60;4.90;;;;;;;14.27;100.00;101746.44;4989321;28;20028;-65
2023/09/05 04:43:35;;;;;;;10.50;5.20;;;;;;;14.26;100.00;101746.41;4988228;28;21017;-66
2023/09/05 04:46:03;;;;;;;6.28;4.60;;;;;;;14.25;100.00;101739.41;4987274;28;20022;-65
2023/09/05 04:48:28;;;;;;;5.50;4.93;;;;;;;14.23;100.00;101735.91;4987390;28;20378;-64
2023/09/05 04:50:54;;;;;;;7.18;4.40;;;;;;;14.22;100.00;101735.00;4987756;28;20018;-65
2023/09/05 04:53:19;;;;;;;5.60;4.55;;;;;;;14.20;100.00;101731.47;4986044;28;20029;-64
2023/09/05 04:55:45;;;;;;;5.15;4.65;;;;;;;14.20;100.00;101734.06;4977172;28;20019;-65
2023/09/05 04:58:13;;;;;;;5.57;4.60;;;;;;;14.20;100.00;101728.84;4981678;28;20382;-65
2023/09/05 05:00:40;;;;;;;4.88;4.15;;;;;;;14.21;100.00;101734.97;4980438;28;20560;-64
2023/09/05 05:03:05;;;;;;;5.88;4.93;;;;;;;14.22;100.00;101732.41;4977102;28;20035;-66
2023/09/05 05:05:30;;;;;;;5.75;4.15;;;;;;;14.22;100.00;101726.28;4985758;28;20367;-66
2023/09/05 05:07:56;;;;;;;5.22;3.75;;;;;;;14.21;100.00;101733.22;4985326;28;20421;-65
2023/09/05 05:10:21;;;;;;;5.88;5.28;;;;;;;14.22;100.00;101735.00;4984498;28;20048;-65
2023/09/05 05:12:47;;;;;;;5.22;3.67;;;;;;;14.24;100.00;101745.47;4985095;28;20042;-66
2023/09/05 05:15:13;;;;;;;6.35;4.45;;;;;;;14.26;100.00;101739.47;4985652;28;20041;-63
2023/09/05 05:17:39;;;;;;;4.30;3.90;;;;;;;14.28;100.00;101742.13;4983166;28;20157;-65
2023/09/05 05:20:05;;;;;;;5.95;4.28;;;;;;;14.28;100.00;101736.91;4985025;28;21468;-65
2023/09/05 05:22:31;;;;;;;5.40;4.35;;;;;;;14.29;100.00;101743.88;4982307;28;20034;-65
2023/09/05 05:24:56;;;;;;;5.25;3.85;;;;;;;14.30;100.00;101743.06;4985866;28;20691;-64
2023/09/05 05:27:22;;;;;;;5.22;4.25;;;;;;;14.33;100.00;101750.97;4976289;28;20050;-65
2023/09/05 05:29:47;;;;;;;4.97;3.90;;;;;;;14.34;100.00;101755.34;4984785;28;20171;-65
2023/09/05 05:32:12;;;;;;;7.15;3.92;;;;;;;14.38;100.00;101749.41;4976365;28;20463;-66
2023/09/05 05:34:38;;;;;;;4.88;3.90;;;;;;;14.41;100.00;101746.88;4988326;28;20373;-65
2023/09/05 05:37:03;;;;;;;3.90;3.50;;;;;;;14.44;100.00;101756.53;4988716;28;20033;-65
2023/09/05 05:39:29;;;;;;;4.15;3.75;;;;;;;14.48;100.00;101762.72;4988092;28;20105;-65
2023/09/05 05:41:54;;;;;;;4.60;3.63;;;;;;;14.53;100.00;101763.75;4988414;28;20041;-66
2023/09/05 05:44:19;;;;;;;4.93;4.00;;;;;;;14.56;100.00;101753.41;4970693;28;20018;-66
2023/09/05 05:46:44;;;;;;;4.35;3.95;;;;;;;14.61;100.00;101757.03;4988155;28;20023;-66
2023/09/05 05:49:10;;;;;;;4.72;4.22;;;;;;;14.67;100.00;101758.94;4988528;28;20026;-66
2023/09/05 05:51:37;;;;;;;5.25;4.25;;;;;;;14.73;100.00;101753.03;4987456;28;20529;-66
2023/09/05 05:54:03;;;;;;;4.57;4.18;;;;;;;14.80;100.00;101749.75;4988173;28;20022;-65
2023/09/05 05:56:28;;;;;;;4.40;4.10;;;;;;;14.86;100.00;101752.56;4988096;28;20041;-65
2023/09/05 05:58:54;;;;;;;4.85;4.35;;;;;;;14.94;100.00;101754.50;4988342;28;20030;-65
2023/09/05 06:01:19;;;;;;;4.57;4.18;;;;;;;15.02;100.00;101757.34;4987839;28;20026;-64
2023/09/05 06:03:44;;;;;;;4.88;4.28;;;;;;;15.09;100.00;101754.91;4986523;28;20030;-65
2023/09/05 06:06:10;;;;;;;4.68;4.28;;;;;;;15.18;100.00;101756.03;4985992;28;20548;-63
2023/09/05 06:08:35;;;;;;;5.35;4.50;;;;;;;15.26;100.00;101754.50;4986200;28;20034;-65
2023/09/05 06:11:00;;;;;;;4.88;4.47;;;;;;;15.36;100.00;101753.91;4986025;28;20022;-65
2023/09/05 06:13:26;;;;;;;7.68;4.80;;;;;;;15.47;100.00;101761.16;4986266;28;20366;-64
2023/09/05 06:15:52;;;;;;;5.53;4.88;;;;;;;15.56;100.00;101758.78;4986376;28;20034;-64
2023/09/05 06:18:18;;;;;;;5.85;4.68;;;;;;;15.65;100.00;101763.34;4987005;28;20037;-65
2023/09/05 06:20:43;;;;;;;4.68;4.22;;;;;;;15.73;100.00;101764.44;4988419;28;20019;-65
2023/09/05 06:23:09;;;;;;;5.60;4.88;;;;;;;15.81;100.00;101756.78;4987641;28;20508;-65
2023/09/05 06:25:34;;;;;;;4.90;4.47;;;;;;;15.92;100.00;101769.25;4987962;28;20025;-65
2023/09/05 06:28:00;;;;;;;4.88;4.43;;;;;;;15.99;100.00;101765.06;4987671;28;20046;-66
2023/09/05 06:30:25;;;;;;;5.53;3.95;;;;;;;16.11;100.00;101769.72;4987450;28;20593;-65
2023/09/05 06:32:50;;;;;;;5.30;4.80;;;;;;;16.23;100.00;101770.00;4987881;28;20061;-66
2023/09/05 06:35:16;;;;;;;4.25;3.85;;;;;;;16.37;100.00;101764.22;4987782;28;20041;-65
2023/09/05 06:37:41;;;;;;;4.75;4.35;;;;;;;16.50;100.00;101763.63;4988046;28;20034;-64
2023/09/05 06:40:12;;;;;;;6.18;4.95;;;;;;;16.63;100.00;101767.41;4989397;28;20121;-65
2023/09/05 06:42:39;;;;;;;5.13;4.30;;;;;;;16.75;100.00;101760.66;4991335;28;20473;-65
2023/09/05 06:45:05;;;;;;;4.55;4.05;;;;;;;16.85;100.00;101766.97;4991254;28;20014;-65
2023/09/05 06:47:30;;;;;;;5.28;4.78;;;;;;;16.96;100.00;101760.22;4991822;28;20030;-65
2023/09/05 06:49:56;;;;;;;5.63;3.70;;;;;;;17.07;100.00;101757.78;4991298;28;20560;-65
2023/09/05 06:52:21;;;;;;;4.97;4.57;;;;;;;17.23;100.00;101756.41;4991149;28;20026;-66
2023/09/05 06:54:46;;;;;;;7.32;4.72;;;;;;;17.42;100.00;101767.22;4990791;28;20026;-64
2023/09/05 06:57:12;;;;;;;5.28;4.80;;;;;;;17.66;100.00;101759.78;4991508;28;20030;-65
2023/09/05 06:59:37;;;;;;;7.35;4.38;;;;;;;17.98;100.00;101762.94;4991401;28;20022;-64
2023/09/05 07:02:02;;;;;;;5.03;4.10;;;;;;;18.30;100.00;101758.16;4991441;28;20022;-65
2023/09/05 07:04:31;;;;;;;4.90;3.75;;;;;;;18.50;100.00;101750.56;4990650;28;20069;-66
2023/09/05 07:06:57;;;;;;;4.15;3.35;;;;;;;18.68;100.00;101749.94;4991282;28;20022;-66
2023/09/05 07:09:22;;;;;;;6.97;3.45;;;;;;;18.85;100.00;101744.00;4991231;28;20097;-66
2023/09/05 07:11:47;;;;;;;3.67;3.00;;;;;;;19.18;100.00;101745.28;4973343;28;20077;-65
2023/09/05 07:14:13;;;;;;;5.13;3.17;;;;;;;19.46;100.00;101738.53;4990607;28;20030;-65
2023/09/05 07:16:38;;;;;;;7.00;3.20;;;;;;;19.70;100.00;101747.50;4991262;28;20026;-66
2023/09/05 07:19:03;;;;;;;3.42;2.85;;;;;;;20.09;100.00;101746.06;4990642;28;20019;-66
2023/09/05 07:21:28;;;;;;;4.10;2.70;;;;;;;20.25;100.00;101744.41;4990764;28;20037;-65
2023/09/05 07:23:54;;;;;;;3.00;2.70;;;;;;;20.56;100.00;101745.44;4990505;28;20412;-65
2023/09/05 07:26:19;;;;;;;3.35;2.40;;;;;;;20.95;100.00;101749.13;4990382;28;20021;-65
2023/09/05 07:28:46;;;;;;;4.13;2.40;;;;;;;21.53;98.75;101750.97;4990555;28;20053;-65
2023/09/05 07:31:14;;;;;;;2.72;2.28;;;;;;;21.90;95.83;101750.09;4990783;28;20081;-66
2023/09/05 07:33:40;;;;;;;3.08;2.25;;;;;;;22.34;94.61;101747.38;4990012;28;20052;-66
2023/09/05 07:36:06;;;;;;;3.92;2.38;;;;;;;22.82;91.52;101746.34;4991014;28;20041;-66
2023/09/05 07:38:31;;;;;;;6.63;2.78;;;;;;;22.98;84.59;101739.19;4990187;28;20474;-66
2023/09/05 07:41:04;;;;;;;2.75;2.30;;;;;;;23.32;83.02;101746.91;4990445;28;20113;-65
2023/09/05 07:43:30;;;;;;;4.70;2.22;;;;;;;23.81;85.73;101738.59;4990819;28;20085;-66
2023/09/05 07:45:55;;;;;;;3.58;2.38;;;;;;;23.93;81.20;101741.13;4990199;28;20033;-66
2023/09/05 07:48:21;;;;;;;3.63;2.10;;;;;;;24.38;80.94;101744.19;4990731;28;20019;-66
2023/09/05 07:50:46;;;;;;;5.93;2.42;;;;;;;24.65;78.40;101736.81;4990403;28;20026;-66
2023/09/05 07:53:12;;;;;;;2.95;2.30;;;;;;;24.90;76.99;101741.75;4990466;28;20029;-65
2023/09/05 07:55:38;;;;;;;4.28;2.25;;;;;;;25.00;76.12;101747.84;4989573;28;20491;-66
2023/09/05 07:58:03;;;;;;;4.35;2.42;;;;;;;25.16;74.79;101746.75;4987880;28;20463;-66
2023/09/05 08:00:28;;;;;;;2.80;2.20;;;;;;;25.26;72.77;101752.75;4980707;28;20072;-66
2023/09/05 08:02:53;;;;;;;5.32;2.28;;;;;;;25.18;69.61;101755.53;4989991;28;20516;-66
2023/09/05 08:05:19;;;;;;;3.22;2.42;;;;;;;25.39;71.60;101755.22;4990515;28;20027;-64
2023/09/05 08:07:45;;;;;;;2.45;2.00;;;;;;;25.46;70.92;101756.88;4990281;28;20366;-67
2023/09/05 08:10:10;;;;;;;3.47;2.38;;;;;;;25.52;69.86;101755.91;4990252;28;20132;-66
2023/09/05 08:12:35;;;;;;;3.97;2.13;;;;;;;25.95;73.02;101761.38;4990206;28;20030;-66
2023/09/05 08:15:01;;;;;;;2.63;2.25;;;;;;;26.23;68.54;101763.50;4989529;28;20161;-66
2023/09/05 08:17:26;;;;;;;2.00;1.80;;;;;;;26.35;69.86;101752.69;4989962;28;20026;-66
2023/09/05 08:19:51;;;;;;;4.38;2.38;;;;;;;26.47;66.78;101761.28;4989989;28;20150;-67
2023/09/05 08:22:17;;;;;;;3.35;1.65;;;;;;;26.71;68.51;101756.38;4988948;28;20018;-66
2023/09/05 08:24:43;;;;;;;5.82;2.50;;;;;;;26.69;67.85;101760.84;4989616;28;20521;-67
2023/09/05 08:27:13;;;;;;;3.00;2.13;;;;;;;26.93;65.02;101759.41;4987742;28;20082;-67
2023/09/05 08:29:38;;;;;;;4.97;2.13;;;;;;;27.20;66.31;101764.19;4979958;28;20381;-66
2023/09/05 08:32:03;;;;;;;3.90;2.05;;;;;;;27.24;65.99;101760.50;4988927;28;20026;-66
2023/09/05 08:34:29;;;;;;;3.80;2.28;;;;;;;27.29;60.92;101766.59;4989706;28;20026;-66
2023/09/05 08:36:54;;;;;;;3.55;2.10;;;;;;;27.36;65.44;101762.03;4989505;28;20382;-66
2023/09/05 08:39:19;;;;;;;2.92;2.30;;;;;;;27.34;60.27;101758.53;4989421;28;20088;-66
2023/09/05 08:41:46;;;;;;;2.38;2.08;;;;;;;27.45;63.61;101752.94;4988922;28;20097;-66
2023/09/05 08:44:12;;;;;;;2.60;1.92;;;;;;;27.41;64.15;101743.28;4989450;28;20121;-66
2023/09/05 08:46:39;;;;;;;3.15;2.20;;;;;;;27.37;61.96;101746.91;4989457;28;20525;-66
2023/09/05 08:49:04;;;;;;;3.67;2.08;;;;;;;27.26;61.92;101750.72;4989828;28;20033;-66
2023/09/05 08:51:35;;;;;;;3.75;1.88;;;;;;;27.30;60.45;101747.09;4989301;28;20493;-66
2023/09/05 08:54:03;;;;;;;3.40;1.80;;;;;;;27.43;63.75;101754.75;4988932;28;20444;-66
2023/09/05 08:56:29;;;;;;;3.72;2.10;;;;;;;27.50;63.95;101759.00;4989261;28;20037;-66
2023/09/05 08:58:56;;;;;;;3.47;1.77;;;;;;;27.57;61.94;101760.59;4989480;28;20030;-67
2023/09/05 09:01:24;;;;;;;4.57;1.90;;;;;;;27.44;61.55;101759.16;4988678;28;20122;-66
2023/09/05 09:03:50;;;;;;;2.50;1.63;;;;;;;27.49;61.80;101759.06;4988675;28;20058;-66
2023/09/05 09:06:16;;;;;;;2.45;1.73;;;;;;;27.49;62.88;101757.25;5000841;28;20015;-66
2023/09/05 09:08:46;;;;;;;3.08;2.00;;;;;;;27.41;58.84;101759.22;4989154;28;20390;-66
2023/09/05 09:11:11;;;;;;;2.13;1.75;;;;;;;27.49;63.50;101756.41;4988610;28;20082;-65
2023/09/05 09:13:38;;;;;;;2.30;1.73;;;;;;;27.44;61.54;101765.34;4988977;28;20185;-65
2023/09/05 09:16:04;;;;;;;3.50;1.65;;;;;;;27.42;61.92;101763.63;4988995;28;20030;-66
2023/09/05 09:18:33;;;;;;;2.42;1.92;;;;;;;27.58;61.76;101766.78;4988652;28;20161;-67
2023/09/05 09:21:08;;;;;;;2.72;1.88;;;;;;;27.61;61.68;101766.72;4988496;28;20029;-67
2023/09/05 09:23:35;;;;;;;4.35;2.03;;;;;;;27.63;60.96;101770.19;4988766;28;20121;-66
2023/09/05 09:26:02;;;;;;;2.83;1.70;;;;;;;27.56;61.47;101765.97;4987538;28;20019;-67
2023/09/05 09:28:28;;;;;;;2.60;2.00;;;;;;;27.44;61.26;101772.47;4988182;28;20046;-66
2023/09/05 09:31:02;;;;;;;3.30;1.60;;;;;;;27.55;59.48;101770.41;4988641;28;20018;-67
2023/09/05 09:33:31;;;;;;;4.55;1.95;;;;;;;27.53;59.85;101771.34;4988485;28;20034;-67
2023/09/05 09:36:01;;;;;;;3.77;1.93;;;;;;;27.62;59.68;101778.22;4988511;28;20031;-65
2023/09/05 09:38:28;;;;;;;2.78;1.98;;;;;;;27.57;60.01;101781.91;4988214;28;20030;-67
2023/09/05 09:40:55;;;;;;;4.10;1.98;;;;;;;27.63;59.38;101786.16;4988691;28;20034;-67
2023/09/05 09:43:20;;;;;;;3.03;1.75;;;;;;;27.64;59.86;101784.38;4988203;28;20034;-66
2023/09/05 09:45:46;;;;;;;3.97;1.60;;;;;;;27.64;56.66;101793.25;4988233;28;20394;-66
2023/09/05 09:48:15;;;;;;;2.20;1.73;;;;;;;27.59;55.98;101779.19;4987962;28;20038;-66
2023/09/05 09:50:43;;;;;;;3.25;1.85;;;;;;;27.60;59.83;101785.38;4987983;28;20015;-67
2023/09/05 09:53:12;;;;;;;2.63;1.67;;;;;;;27.57;59.11;101787.22;4988294;28;20391;-66
2023/09/05 09:55:43;;;;;;;2.58;1.98;;;;;;;27.58;59.83;101793.38;4988412;28;20022;-65
2023/09/05 09:58:14;;;;;;;2.83;1.90;;;;;;;27.65;60.82;101789.66;4987654;28;20026;-66
2023/09/05 10:00:44;;;;;;;3.42;1.65;;;;;;;27.65;61.03;101778.16;4987881;28;20587;-66
2023/09/05 10:03:10;;;;;;;3.50;1.98;;;;;;;27.59;58.62;101779.19;4988241;28;20081;-66
2023/09/05 10:05:41;;;;;;;2.67;1.65;;;;;;;27.60;60.32;101780.03;4987975;28;20033;-67
2023/09/05 10:08:07;;;;;;;;;;;;;;;27.54;60.04;101771.31;4988557;28;20041;-66
2023/09/05 10:10:33;;;;;;;3.47;1.60;;;;;;;27.54;58.27;101781.94;4987663;28;19909;-67
2023/09/05 10:13:01;;;;;;;6.82;2.38;;;;;;;27.49;59.97;101770.53;4988076;28;20030;-65
2023/09/05 10:15:29;;;;;;;2.30;1.75;;;;;;;27.37;61.00;101765.53;4990739;28;20039;-67
2023/09/05 10:17:55;;;;;;;1.83;1.70;;;;;;;27.41;58.35;101761.91;4979695;28;20038;-66
2023/09/05 10:20:21;;;;;;;2.97;1.40;;;;;;;27.57;62.66;101755.28;4991869;28;20466;-65
2023/09/05 10:22:46;;;;;;;3.97;2.20;;;;;;;27.71;61.90;101751.41;4991669;28;20528;-67
2023/09/05 10:25:13;;;;;;;4.40;1.88;;;;;;;27.77;59.36;101764.56;4992026;28;20097;-67
2023/09/05 10:27:39;;;;;;;5.13;1.80;;;;;;;27.81;60.53;101760.88;4972713;28;20093;-65
2023/09/05 10:30:06;;;;;;;3.10;1.92;;;;;;;27.90;61.27;101766.91;4986628;28;20485;-65
2023/09/05 10:32:32;;;;;;;3.28;1.67;;;;;;;27.92;58.97;101762.41;4991193;28;20022;-65
2023/09/05 10:35:02;;;;;;;2.00;1.60;;;;;;;27.98;60.11;101759.56;4991714;28;20026;-66
2023/09/05 10:37:38;;;;;;;2.25;1.75;;;;;;;27.99;59.09;101766.63;4979217;28;20105;-66
2023/09/05 10:40:09;;;;;;;4.18;1.90;;;;;;;28.00;61.10;101751.53;4991571;28;20030;-67
2023/09/05 10:42:40;;;;;;;2.15;1.83;;;;;;;28.08;58.31;101757.53;4991550;28;20033;-66
2023/09/05 10:45:22;;;;;;;1.70;1.58;;;;;;;28.04;59.36;101754.09;4991206;28;20117;-66
2023/09/05 10:47:49;;;;;;;3.10;1.65;;;;;;;28.07;58.60;101752.22;4991629;28;20064;-67
2023/09/05 10:50:19;;;;;;;2.33;1.60;;;;;;;28.11;58.29;101744.13;4991556;28;20038;-66
2023/09/05 10:52:49;;;;;;;5.85;1.65;;;;;;;28.22;61.24;101746.50;4991508;28;20455;-66
2023/09/05 10:55:29;;;;;;;2.95;1.70;;;;;;;28.21;60.38;101747.41;4979248;28;20027;-66
2023/09/05 10:57:56;;;;;;;2.90;1.80;;;;;;;28.29;58.42;101745.41;4991346;28;20038;-66
2023/09/05 11:00:23;;;;;;;2.65;1.83;;;;;;;28.36;61.64;101748.78;4991339;28;20081;-66
2023/09/05 11:02:49;;;;;;;3.60;1.85;;;;;;;28.41;60.32;101743.31;4991513;28;20033;-66
2023/09/05 11:05:18;;;;;;;4.20;1.70;;;;;;;28.41;59.43;101733.53;4990947;28;20026;-66
2023/09/05 11:07:50;;;;;;;2.63;2.03;;;;;;;28.53;61.42;101734.94;4990756;28;20093;-66
2023/09/05 11:10:33;;;;;;;3.08;1.95;;;;;;;28.61;62.09;101731.19;4991621;28;20022;-66
2023/09/05 11:13:11;;;;;;;2.13;1.80;;;;;;;28.61;58.00;101736.50;4973510;28;20142;-65
2023/09/05 11:15:43;;;;;;;2.47;1.90;;;;;;;28.62;56.83;101738.28;4990879;28;20034;-66
2023/09/05 11:18:14;;;;;;;2.53;2.08;;;;;;;28.66;58.12;101737.25;4990951;28;20518;-66